Time;durP1;ratioP1;P1;durP2;ratioP2;P2;SDS_P1;SDS_P2;PMS_P1;PMS_P2;Temp;Humidity;BMP_temperature;BMP_pressure;BME280_temperature;BME280_humidity;BME280_pressure;Samples;Min_cycle;Max_cycle;Signal;HPM_P1;HPM_P2
2023/11/30 11:34:41;;;;;;;8.77;7.53;;;;;;;9.96;47.26;97070.69;8086109;24;20229;-88
2023/11/30 11:46:53;;;;;;;10.60;8.23;;;;;;;9.19;48.11;97014.94;8172145;24;20199;-85
2023/11/30 11:50:26;;;;;;;8.10;7.07;;;;;;;8.92;48.71;96983.47;8181432;24;20212;-87
2023/11/30 11:54:08;;;;;;;8.30;7.50;;;;;;;8.96;49.33;96980.06;8191756;24;20206;-91
2023/11/30 11:58:04;;;;;;;10.53;8.53;;;;;;;8.97;48.79;96922.59;8220799;24;20280;-86
2023/11/30 12:01:42;;;;;;;9.27;7.23;;;;;;;8.79;49.90;96928.13;8209512;24;20524;-87
2023/11/30 16:58:36;;;;;;;13.13;8.37;;;;;;;9.13;52.95;96962.94;8423763;23;20178;-89
2023/11/30 17:02:13;;;;;;;9.13;7.83;;;;;;;9.30;53.21;97014.06;8419325;23;20266;-87
2023/11/30 17:05:39;;;;;;;11.77;9.17;;;;;;;9.15;53.50;97024.53;8418238;23;20173;-89
2023/11/30 17:09:04;;;;;;;12.73;10.20;;;;;;;8.85;53.78;96966.69;8418939;23;20560;-85
2023/11/30 17:13:07;;;;;;;;;;;;;;;;;;;;;
2023/11/30 17:16:38;;;;;;;11.87;10.00;;;;;;;8.81;54.71;97033.50;8102274;24;20430;-86
2023/11/30 17:20:04;;;;;;;15.63;12.30;;;;;;;7.29;57.63;96937.31;8093109;24;20199;-85
2023/11/30 17:24:36;;;;;;;;;;;;;;;;;;;;;
2023/11/30 17:28:18;;;;;;;14.23;11.60;;;;;;;8.33;55.45;96901.44;8087093;24;20197;-86
2023/11/30 17:31:50;;;;;;;15.57;11.63;;;;;;;9.06;54.68;96988.34;8099844;24;20203;-87
2023/11/30 17:35:15;;;;;;;11.30;10.10;;;;;;;8.58;54.47;96939.53;8218172;24;20221;-88
2023/11/30 17:43:21;;;;;;;11.30;9.73;;;;;;;9.47;53.43;97047.19;8312348;23;20278;-91
2023/11/30 17:46:54;;;;;;;10.23;8.17;;;;;;;9.36;53.89;97042.69;8248660;24;20201;-88
2023/11/30 17:50:16;;;;;;;10.53;9.30;;;;;;;8.88;55.17;97022.63;8264835;24;20205;-90
2023/11/30 17:53:53;;;;;;;12.50;10.37;;;;;;;8.89;54.84;97008.16;8356026;23;20212;-91
2023/11/30 17:57:15;;;;;;;15.07;11.20;;;;;;;9.04;54.32;97009.28;8436328;23;20786;-91
2023/11/30 18:00:37;;;;;;;10.93;9.33;;;;;;;9.19;53.80;97034.56;8457010;23;20869;-90
2023/11/30 18:04:00;;;;;;;11.07;8.97;;;;;;;8.99;54.10;96993.84;8458944;23;20182;-93
2023/11/30 18:07:22;;;;;;;9.80;7.87;;;;;;;9.32;54.10;96993.13;8460048;23;20756;-90
2023/11/30 18:10:43;;;;;;;9.67;8.47;;;;;;;9.22;54.08;96990.25;8452440;23;20297;-92
2023/11/30 18:18:01;;;;;;;12.77;10.30;;;;;;;8.68;55.20;97012.28;8342493;23;20184;-93
2023/11/30 18:21:27;;;;;;;18.50;11.77;;;;;;;8.46;55.29;96967.47;8335437;23;20351;-92
2023/11/30 18:24:49;;;;;;;15.97;11.47;;;;;;;8.59;55.91;96967.19;8338731;23;20178;-92
2023/11/30 18:28:14;;;;;;;20.70;14.37;;;;;;;9.25;55.25;97039.00;8349998;23;20191;-90
2023/11/30 18:49:15;;;;;;;13.43;10.53;;;;;;;9.50;53.62;97025.22;8043677;24;20652;-92
2023/11/30 18:53:08;;;;;;;13.50;10.07;;;;;;;9.42;53.73;97018.34;8068580;24;20682;-90
2023/11/30 18:56:34;;;;;;;17.60;11.50;;;;;;;9.60;53.13;97034.28;8132726;24;20206;-91
2023/11/30 19:00:01;;;;;;;18.10;12.87;;;;;;;8.77;54.63;97008.16;8163109;24;20189;-90
2023/11/30 19:03:35;;;;;;;15.73;12.00;;;;;;;9.02;54.12;97005.97;8186588;23;20296;-91
2023/11/30 19:11:26;;;;;;;12.93;10.37;;;;;;;9.22;53.23;97025.22;8292268;23;20260;-91
2023/11/30 19:15:00;;;;;;;15.27;11.30;;;;;;;8.81;53.90;96960.16;8362131;23;20229;-90
2023/11/30 19:18:31;;;;;;;12.23;10.43;;;;;;;8.59;54.33;96927.75;8383144;23;20264;-92
2023/11/30 19:21:53;;;;;;;10.00;8.70;;;;;;;9.21;53.39;96991.31;8410181;23;20301;-91
2023/11/30 19:29:01;;;;;;;12.63;9.70;;;;;;;8.48;54.82;97035.19;8451732;23;20229;-91
2023/11/30 19:32:53;;;;;;;10.83;9.37;;;;;;;8.32;55.78;97030.53;8435105;23;20219;-92
2023/11/30 19:36:17;;;;;;;18.23;13.83;;;;;;;8.30;55.35;97006.59;8429198;23;20178;-91
2023/11/30 19:39:39;;;;;;;13.70;11.67;;;;;;;7.87;55.81;96947.06;8423522;23;20461;-91
2023/11/30 19:43:01;;;;;;;14.37;11.70;;;;;;;8.78;54.87;97015.16;8410401;23;20207;-92
2023/11/30 19:46:25;;;;;;;13.83;11.83;;;;;;;8.17;54.81;96981.81;8413042;23;20316;-91
2023/11/30 19:49:48;;;;;;;18.00;12.77;;;;;;;7.91;56.13;96990.34;8426085;23;20178;-90
2023/11/30 19:53:10;;;;;;;20.00;14.17;;;;;;;7.99;55.91;97012.28;8442979;23;20224;-90
2023/11/30 19:56:31;;;;;;;15.23;12.90;;;;;;;7.79;57.22;96993.00;8451456;23;20252;-89
2023/11/30 19:59:58;;;;;;;15.60;12.53;;;;;;;7.55;57.77;96969.88;8452858;23;20196;-89
2023/11/30 20:03:20;;;;;;;16.93;13.00;;;;;;;8.50;55.84;97008.91;8428676;23;20191;-89
2023/11/30 20:06:46;;;;;;;17.07;13.23;;;;;;;8.14;54.86;96948.22;8428880;23;20641;-90
2023/11/30 20:10:10;;;;;;;15.53;12.33;;;;;;;8.89;54.94;97021.59;8428079;23;20515;-89
2023/11/30 20:13:32;;;;;;;12.60;10.20;;;;;;;8.58;54.37;96950.28;8420309;23;20534;-89
2023/11/30 20:16:54;;;;;;;12.03;10.63;;;;;;;8.86;54.07;97017.50;8419560;23;20179;-89
2023/11/30 20:24:00;;;;;;;12.07;9.83;;;;;;;9.36;54.10;97050.75;8405209;23;20189;-87
2023/11/30 20:27:22;;;;;;;12.33;9.80;;;;;;;9.31;53.92;97064.94;8417218;23;20180;-87
2023/11/30 20:30:43;;;;;;;12.30;9.13;;;;;;;8.73;54.32;96998.13;8419538;23;20812;-90
2023/11/30 20:34:05;;;;;;;14.63;10.53;;;;;;;8.76;54.53;96984.22;8419822;23;20197;-89
2023/11/30 20:37:27;;;;;;;13.23;11.47;;;;;;;8.75;54.40;97021.03;8419215;23;20185;-89
2023/11/30 20:40:50;;;;;;;12.93;10.87;;;;;;;8.32;55.33;97009.84;8405663;23;20867;-88
2023/11/30 20:44:13;;;;;;;11.80;10.50;;;;;;;8.84;54.93;97070.63;8405637;23;20190;-89
2023/11/30 20:47:34;;;;;;;11.27;10.13;;;;;;;8.24;56.23;97039.75;8420817;23;20180;-87
2023/11/30 20:50:56;;;;;;;12.87;10.50;;;;;;;8.59;56.60;97070.09;8421668;23;20201;-91
2023/11/30 20:54:17;;;;;;;11.77;10.37;;;;;;;8.77;56.03;97077.22;8419951;23;20198;-90
2023/11/30 20:57:41;;;;;;;10.40;8.80;;;;;;;8.74;55.37;97023.94;8422644;23;20184;-89
2023/11/30 21:01:03;;;;;;;14.33;9.37;;;;;;;8.85;55.25;97082.22;8423366;23;20198;-90
2023/11/30 21:04:25;;;;;;;13.50;9.70;;;;;;;8.24;54.86;97007.53;8425105;23;20187;-90
2023/11/30 21:07:47;;;;;;;12.37;9.77;;;;;;;8.03;56.15;97034.09;8423110;23;20263;-89
2023/11/30 21:11:08;;;;;;;13.17;10.50;;;;;;;8.05;57.46;97070.38;8429975;23;20201;-90
2023/11/30 21:14:31;;;;;;;15.13;11.00;;;;;;;7.63;57.72;96992.88;8433993;23;20270;-89
2023/11/30 21:17:53;;;;;;;15.63;12.33;;;;;;;7.88;57.31;97037.22;8422557;23;20187;-89
2023/11/30 21:21:16;;;;;;;16.13;13.20;;;;;;;8.09;57.45;97063.53;8432334;23;20200;-89
2023/11/30 21:24:38;;;;;;;16.90;12.87;;;;;;;8.17;57.91;97091.88;8425141;23;20179;-91
2023/11/30 21:28:01;;;;;;;20.30;14.13;;;;;;;8.57;57.14;97100.91;8417106;23;20178;-88
2023/11/30 21:31:35;;;;;;;19.57;14.47;;;;;;;8.52;56.54;97098.13;8425325;23;20219;-90
2023/11/30 21:35:12;;;;;;;22.37;13.03;;;;;;;7.98;57.25;97060.81;8421530;23;20273;-89
2023/11/30 21:38:37;;;;;;;17.27;13.03;;;;;;;7.88;58.04;97068.59;8409995;23;20179;-89
2023/11/30 21:41:59;;;;;;;16.83;12.97;;;;;;;8.14;57.29;97071.66;8408037;23;20200;-89
2023/11/30 21:45:20;;;;;;;16.37;12.10;;;;;;;8.48;56.41;97075.47;8404056;23;20193;-88
2023/11/30 21:48:43;;;;;;;16.80;11.60;;;;;;;8.30;56.66;97080.97;8396108;23;20272;-89
2023/11/30 21:52:06;;;;;;;17.37;13.30;;;;;;;8.00;56.67;97023.81;8399595;23;20203;-89
2023/11/30 21:55:32;;;;;;;12.67;10.37;;;;;;;8.14;56.24;97078.94;8415398;23;20198;-85
2023/11/30 22:16:03;;;;;;;17.57;14.47;;;;;;;7.62;59.42;97072.50;8310882;23;20318;-89
2023/11/30 22:19:24;;;;;;;18.67;15.13;;;;;;;8.01;57.70;97055.00;8410490;23;20244;-87
2023/11/30 22:22:46;;;;;;;21.23;16.17;;;;;;;8.02;57.81;97040.53;8420133;23;20199;-88
2023/11/30 22:26:09;;;;;;;19.67;15.77;;;;;;;8.22;57.95;97063.31;8420610;23;20260;-90
2023/11/30 22:29:30;;;;;;;25.63;19.93;;;;;;;7.90;57.86;96999.44;8408149;23;20270;-89
2023/11/30 22:32:54;;;;;;;21.77;15.83;;;;;;;8.24;57.65;97061.22;8416414;23;20347;-88
2023/11/30 22:36:15;;;;;;;20.03;14.93;;;;;;;8.05;57.19;97011.34;8416379;23;20178;-89
2023/11/30 22:39:39;;;;;;;18.13;14.93;;;;;;;7.96;57.29;97001.19;8401649;23;20185;-89
2023/11/30 22:43:00;;;;;;;19.17;14.10;;;;;;;8.09;56.45;96999.13;8402403;23;20225;-88
2023/11/30 22:46:22;;;;;;;19.10;13.93;;;;;;;8.11;56.11;97017.66;8415762;23;20713;-89
2023/11/30 22:49:45;;;;;;;20.17;14.57;;;;;;;8.30;56.71;97067.53;8417837;23;20180;-88
2023/11/30 22:53:06;;;;;;;24.70;16.70;;;;;;;7.74;56.97;97019.72;8414163;23;20267;-89
2023/11/30 22:56:31;;;;;;;21.33;16.87;;;;;;;8.24;56.71;97063.91;8421545;23;20190;-87
2023/11/30 22:59:52;;;;;;;21.17;16.53;;;;;;;8.49;56.32;97064.47;8434440;23;20183;-89
2023/11/30 23:03:14;;;;;;;18.73;14.80;;;;;;;8.35;56.10;97041.63;8418643;23;20278;-90
2023/11/30 23:06:37;;;;;;;21.63;15.83;;;;;;;8.51;56.24;97059.72;8418270;23;20368;-90
2023/11/30 23:09:58;;;;;;;17.87;13.93;;;;;;;8.34;55.76;97007.78;8410464;23;20208;-89
2023/11/30 23:13:20;;;;;;;19.33;15.00;;;;;;;8.78;55.59;97078.84;8405638;23;20369;-90
2023/11/30 23:16:41;;;;;;;20.03;15.70;;;;;;;7.83;56.69;96988.81;8415439;23;20187;-90
2023/11/30 23:20:03;;;;;;;22.13;15.70;;;;;;;8.10;57.05;97057.09;8418050;23;20249;-90
2023/11/30 23:23:26;;;;;;;23.53;16.67;;;;;;;7.83;57.24;97017.53;8404839;23;20187;-89
2023/11/30 23:26:48;;;;;;;20.83;15.93;;;;;;;8.21;56.89;97069.75;8403032;23;20235;-90
2023/11/30 23:30:10;;;;;;;22.37;16.30;;;;;;;8.20;57.48;97081.50;8413807;23;20178;-90
2023/11/30 23:33:31;;;;;;;20.17;14.87;;;;;;;8.57;56.71;97098.25;8417039;23;20198;-88
2023/11/30 23:36:53;;;;;;;18.33;14.10;;;;;;;8.61;55.79;97043.81;8421158;23;20182;-87
2023/11/30 23:40:19;;;;;;;19.60;14.80;;;;;;;8.66;55.96;97075.34;8418978;23;20270;-88
2023/11/30 23:43:41;;;;;;;17.37;13.70;;;;;;;8.23;55.40;97042.66;8418706;23;20189;-89
2023/11/30 23:47:02;;;;;;;19.57;13.80;;;;;;;7.94;57.45;97079.22;8417007;23;20246;-90
2023/11/30 23:50:24;;;;;;;19.03;14.73;;;;;;;7.55;57.95;97093.22;8420305;23;20206;-90
2023/11/30 23:53:46;;;;;;;20.80;15.53;;;;;;;7.79;58.15;97062.75;8416594;23;20645;-90
2023/11/30 23:57:09;;;;;;;18.90;13.83;;;;;;;7.62;57.18;97034.97;8402545;23;20197;-89
